createdAt,value
2023-03-17T00:01:44.331Z,3.51
2023-03-17T00:07:10.351Z,3.51
2023-03-17T00:12:38.319Z,3.52
2023-03-17T00:18:04.308Z,3.60
2023-03-17T00:23:32.288Z,3.58
2023-03-17T00:28:53.345Z,3.57
2023-03-17T00:34:18.364Z,3.59
2023-03-17T00:39:43.329Z,3.60
2023-03-17T00:45:19.334Z,3.59
2023-03-17T00:50:45.334Z,3.62
2023-03-17T00:56:10.331Z,3.62
2023-03-17T01:01:38.373Z,3.72
2023-03-17T01:07:05.321Z,3.79
2023-03-17T01:12:30.425Z,3.79
2023-03-17T01:17:58.313Z,3.83
2023-03-17T01:23:23.345Z,3.85
2023-03-17T01:28:48.348Z,3.84
2023-03-17T01:34:16.361Z,3.82
2023-03-17T01:39:41.325Z,3.94
2023-03-17T01:45:09.361Z,3.92
2023-03-17T01:50:37.385Z,3.93
2023-03-17T01:56:03.353Z,3.99
2023-03-17T02:01:28.373Z,4.01
2023-03-17T02:06:59.107Z,4.13
2023-03-17T02:12:25.499Z,4.14
2023-03-17T02:17:50.350Z,4.13
2023-03-17T02:23:19.359Z,4.19
2023-03-17T02:28:46.569Z,4.19
2023-03-17T02:34:10.488Z,4.24
2023-03-17T02:39:38.383Z,4.24
2023-03-17T02:45:04.367Z,4.28
2023-03-17T02:50:32.407Z,4.27
2023-03-17T02:55:59.369Z,4.34
2023-03-17T03:01:24.452Z,4.42
2023-03-17T03:06:49.399Z,4.40
2023-03-17T03:12:18.401Z,4.45
2023-03-17T03:17:42.474Z,4.52
2023-03-17T03:23:07.417Z,4.47
2023-03-17T03:28:35.399Z,4.43
2023-03-17T03:34:00.361Z,4.45
2023-03-17T03:39:25.418Z,4.47
2023-03-17T03:44:59.476Z,4.49
2023-03-17T03:50:24.403Z,4.56
2023-03-17T03:55:49.474Z,4.55
2023-03-17T04:01:19.605Z,4.58
2023-03-17T04:06:43.400Z,4.68
2023-03-17T04:12:08.404Z,4.71
2023-03-17T04:17:35.389Z,4.76
2023-03-17T04:23:00.407Z,4.70
2023-03-17T04:28:24.410Z,4.67
2023-03-17T04:33:52.423Z,4.61
2023-03-17T04:39:17.406Z,4.70
2023-03-17T04:44:43.427Z,4.67
2023-03-17T04:50:10.577Z,4.67
2023-03-17T04:55:35.404Z,4.65
2023-03-17T05:00:59.572Z,4.59
2023-03-17T05:06:27.425Z,4.56
2023-03-17T05:11:51.446Z,4.58
2023-03-17T05:17:16.413Z,4.50
2023-03-17T05:22:43.455Z,4.44
2023-03-17T05:28:08.449Z,4.36
2023-03-17T05:33:34.434Z,4.41
2023-03-17T05:39:03.451Z,4.38
2023-03-17T05:44:34.421Z,4.36
2023-03-17T05:49:59.535Z,4.39
2023-03-17T05:55:27.476Z,4.37
2023-03-17T06:00:53.457Z,4.39
2023-03-17T06:06:17.472Z,4.36
2023-03-17T06:11:45.448Z,4.35
2023-03-17T06:17:11.471Z,4.33
2023-03-17T06:22:36.683Z,4.32
2023-03-17T06:28:04.601Z,4.34
2023-03-17T06:33:30.459Z,4.38
2023-03-17T06:38:55.491Z,4.47
2023-03-17T06:44:29.475Z,4.53
2023-03-17T06:49:55.453Z,4.57
2023-03-17T06:55:21.475Z,4.58
2023-03-17T07:00:49.519Z,4.67
2023-03-17T07:06:13.480Z,4.78
2023-03-17T07:11:39.484Z,4.94
2023-03-17T07:17:06.482Z,5.07
2023-03-17T07:22:32.493Z,5.19
2023-03-17T07:27:56.519Z,5.32
2023-03-17T07:33:24.477Z,5.44
2023-03-17T07:38:50.551Z,5.62
2023-03-17T07:44:22.538Z,5.83
2023-03-17T07:49:50.517Z,6.06
2023-03-17T07:55:15.475Z,6.30
2023-03-17T08:00:41.480Z,6.52
2023-03-17T08:06:12.522Z,6.95
2023-03-17T08:11:37.629Z,7.20
2023-03-17T08:17:03.868Z,7.39
2023-03-17T08:22:32.537Z,7.58
2023-03-17T08:27:56.550Z,7.68
2023-03-17T08:33:22.649Z,7.88
2023-03-17T08:38:52.540Z,8.10
2023-03-17T08:44:19.408Z,8.35
2023-03-17T08:49:43.547Z,8.51
2023-03-17T08:55:11.545Z,8.72
2023-03-17T09:00:37.533Z,8.98
2023-03-17T09:06:04.541Z,9.18
2023-03-17T09:11:34.548Z,9.45
2023-03-17T09:17:00.533Z,9.70
2023-03-17T09:22:30.230Z,9.87
2023-03-17T09:27:59.544Z,10.13
2023-03-17T09:33:24.577Z,10.33
2023-03-17T09:38:50.352Z,10.45
2023-03-17T09:44:35.546Z,10.61
2023-03-17T09:50:05.547Z,10.91
2023-03-17T09:55:41.560Z,11.10
2023-03-17T10:01:09.758Z,11.33
2023-03-17T10:06:43.587Z,11.52
2023-03-17T10:12:17.584Z,11.76
2023-03-17T10:17:49.722Z,11.79
2023-03-17T10:23:18.583Z,11.94
2023-03-17T10:28:45.589Z,12.07
2023-03-17T10:34:21.768Z,12.16
2023-03-17T10:39:54.651Z,12.36
2023-03-17T10:45:32.608Z,12.46
2023-03-17T10:51:02.575Z,12.62
2023-03-17T10:56:36.568Z,12.83
2023-03-17T11:02:03.608Z,13.00
2023-03-17T11:07:35.591Z,13.33
2023-03-17T11:13:05.621Z,13.61
2023-03-17T11:18:34.634Z,13.87
2023-03-17T11:24:11.768Z,14.17
2023-03-17T11:29:49.632Z,14.30
2023-03-17T11:35:33.657Z,14.45
2023-03-17T11:41:30.616Z,14.62
2023-03-17T11:47:01.608Z,14.69
2023-03-17T11:52:34.664Z,14.87
2023-03-17T11:58:06.622Z,15.10
2023-03-17T12:03:39.686Z,15.27
2023-03-17T12:09:10.605Z,15.43
2023-03-17T12:14:44.966Z,15.61
2023-03-17T12:20:22.637Z,15.46
2023-03-17T12:25:49.622Z,15.66
2023-03-17T12:31:21.688Z,15.86
2023-03-17T12:36:45.734Z,16.09
2023-03-17T12:42:30.681Z,16.38
2023-03-17T12:48:08.661Z,16.62
2023-03-17T12:53:38.730Z,16.76
2023-03-17T12:59:08.673Z,17.09
2023-03-17T13:04:39.673Z,17.41
2023-03-17T13:10:04.679Z,17.69
2023-03-17T13:15:37.708Z,17.90
2023-03-17T13:21:22.704Z,18.15
2023-03-17T13:27:11.708Z,18.39
2023-03-17T13:32:51.710Z,18.70
2023-03-17T13:38:40.661Z,18.98
2023-03-17T13:44:37.739Z,19.12
2023-03-17T13:50:04.698Z,19.36
2023-03-17T13:55:53.757Z,19.49
2023-03-17T14:01:22.715Z,19.46
2023-03-17T14:06:51.719Z,19.50
2023-03-17T14:12:26.712Z,19.76
2023-03-17T14:17:57.725Z,19.74
2023-03-17T14:23:22.721Z,19.75
2023-03-17T14:28:50.810Z,19.60
2023-03-17T14:34:22.750Z,19.30
2023-03-17T14:39:47.743Z,19.16
2023-03-17T14:45:17.704Z,19.12
2023-03-17T14:50:45.904Z,18.91
2023-03-17T14:56:11.733Z,19.03
2023-03-17T15:01:50.299Z,19.06
2023-03-17T15:07:15.846Z,18.91
2023-03-17T15:12:42.804Z,18.81
2023-03-17T15:18:16.781Z,18.68
2023-03-17T15:23:44.733Z,18.54
2023-03-17T15:29:09.752Z,18.43
2023-03-17T15:34:36.765Z,18.41
2023-03-17T15:40:03.758Z,18.36
2023-03-17T15:45:30.837Z,18.20
2023-03-17T15:50:59.801Z,18.05
2023-03-17T15:56:34.762Z,17.92
2023-03-17T16:02:05.774Z,17.76
2023-03-17T16:07:33.776Z,17.50
2023-03-17T16:12:57.778Z,17.27
2023-03-17T16:18:27.800Z,17.00
2023-03-17T16:23:54.797Z,16.74
2023-03-17T16:29:22.847Z,16.52
2023-03-17T16:34:46.785Z,16.32
2023-03-17T16:40:22.930Z,15.96
2023-03-17T16:45:48.811Z,15.79
2023-03-17T16:51:14.901Z,15.50
2023-03-17T16:56:42.889Z,15.34
2023-03-17T17:02:15.089Z,15.07
2023-03-17T17:07:39.849Z,14.87
2023-03-17T17:13:07.782Z,14.69
2023-03-17T17:18:35.905Z,14.48
2023-03-17T17:24:02.848Z,14.32
2023-03-17T17:29:32.401Z,14.11
2023-03-17T17:34:55.878Z,13.97
2023-03-17T17:40:23.839Z,13.76
2023-03-17T17:45:50.824Z,13.58
2023-03-17T17:51:15.880Z,13.45
2023-03-17T17:56:44.856Z,13.26
2023-03-17T18:02:12.859Z,13.13
2023-03-17T18:07:37.971Z,12.90
2023-03-17T18:13:02.839Z,12.84
2023-03-17T18:18:29.914Z,12.75
2023-03-17T18:23:56.939Z,12.66
2023-03-17T18:29:21.862Z,12.55
2023-03-17T18:34:52.900Z,12.46
2023-03-17T18:40:18.913Z,12.33
2023-03-17T18:45:43.956Z,12.20
2023-03-17T18:51:10.879Z,12.12
2023-03-17T18:56:36.896Z,11.99
2023-03-17T19:02:00.904Z,11.97
2023-03-17T19:07:29.039Z,11.87
2023-03-17T19:12:53.888Z,11.81
2023-03-17T19:18:18.901Z,11.70
2023-03-17T19:23:45.877Z,11.65
2023-03-17T19:29:10.994Z,11.61
2023-03-17T19:34:34.896Z,11.50
2023-03-17T19:40:02.916Z,11.37
2023-03-17T19:45:27.931Z,11.35
2023-03-17T19:50:52.928Z,11.27
2023-03-17T19:56:22.037Z,11.20
2023-03-17T20:01:48.975Z,11.09
2023-03-17T20:07:19.956Z,11.03
2023-03-17T20:12:49.922Z,10.99
2023-03-17T20:18:14.929Z,10.92
2023-03-17T20:23:41.590Z,10.81
2023-03-17T20:29:08.925Z,10.80
2023-03-17T20:34:33.911Z,10.74
2023-03-17T20:40:00.947Z,10.64
2023-03-17T20:45:30.580Z,10.56
2023-03-17T20:50:55.956Z,10.54
2023-03-17T20:56:24.318Z,10.46
2023-03-17T21:01:55.003Z,10.44
2023-03-17T21:07:26.951Z,10.39
2023-03-17T21:12:52.073Z,10.38
2023-03-17T21:18:21.991Z,10.31
2023-03-17T21:23:48.013Z,10.30
2023-03-17T21:29:12.936Z,10.28
2023-03-17T21:34:41.942Z,10.22
2023-03-17T21:40:05.968Z,10.17
2023-03-17T21:45:32.017Z,10.11
2023-03-17T21:51:00.009Z,10.04
2023-03-17T21:56:26.990Z,10.00
2023-03-17T22:01:53.061Z,10.02
2023-03-17T22:07:26.984Z,10.00
2023-03-17T22:12:52.013Z,9.96
2023-03-17T22:18:16.984Z,9.91
2023-03-17T22:23:48.013Z,9.87
2023-03-17T22:29:14.016Z,9.87
2023-03-17T22:34:39.025Z,9.85
2023-03-17T22:40:11.042Z,9.83
2023-03-17T22:45:44.059Z,9.80
2023-03-17T22:51:11.037Z,9.83
2023-03-17T22:56:40.042Z,9.80
2023-03-17T23:02:05.052Z,9.78
2023-03-17T23:07:49.588Z,9.85
2023-03-17T23:13:19.014Z,9.94
2023-03-17T23:18:46.122Z,10.01
2023-03-17T23:24:12.039Z,10.11
2023-03-17T23:29:39.423Z,10.09
2023-03-17T23:35:04.047Z,10.07
2023-03-17T23:40:30.405Z,10.08
2023-03-17T23:46:01.140Z,10.05
2023-03-17T23:51:27.051Z,10.02
2023-03-17T23:56:52.045Z,10.03
